Lambs Creek, Pennsylvania
Current Conditions -  °F | °C
As of 11:15 PM on Monday 22 Dec 2014 (Local Time) from KN38 Reporting Station
Haze Haze  
Wind Chill: 24°   Ceiling: 400
Heat Index: 32°   Visibility: 1.7mi
Dew Point: 32°   Wind: 9mph
Humidity: 100%   Direction: 190°S
Pressure: 30.06"   Gusts: NA
Location:  41.8345°N, 77.0538°W
Report Text: KN38 230415Z AUTO 19008KT 1 3/4SM BR OVC004 M00/M00 A3006 RMK AO2
Loading
Personal Weather Stations






























Interactive Weather Map New forecast layout! Learn more

10-Day Weather Forecast

Advertisements
Track Severe Weather on mobile